Time;durP1;ratioP1;P1;durP2;ratioP2;P2;SDS_P1;SDS_P2;PMS_P1;PMS_P2;Temp;Humidity;BMP_temperature;BMP_pressure;BME280_temperature;BME280_humidity;BME280_pressure;Samples;Min_cycle;Max_cycle;Signal;HPM_P1;HPM_P2
2023/01/15 00:02:18;;;;;;;;;;;;;;;15.98;73.16;101620.88;7406781;19;1568;-78
2023/01/15 00:04:47;;;;;;;;;;;;;;;15.99;72.84;101627.91;7408329;19;988;-78
2023/01/15 00:07:15;;;;;;;;;;;;;;;15.97;72.85;101632.50;7405858;19;1828;-78
2023/01/15 00:09:43;;;;;;;;;;;;;;;15.95;73.22;101645.06;7406599;19;1540;-78
2023/01/15 00:12:11;;;;;;;;;;;;;;;15.93;73.13;101630.97;7408667;19;1762;-78
2023/01/15 00:14:40;;;;;;;;;;;;;;;15.96;72.96;101649.47;7406000;19;1864;-78
2023/01/15 00:17:08;;;;;;;;;;;;;;;15.97;73.02;101656.50;7407351;19;1599;-78
2023/01/15 00:19:39;;;;;;;;;;;;;;;15.96;72.84;101644.13;7408332;19;1030;-78
2023/01/15 00:22:07;;;;;;;;;;;;;;;15.93;73.04;101644.31;7407116;19;1717;-78
2023/01/15 00:27:40;;;;;;;;;;;;;;;15.93;72.76;101657.66;7400743;19;1686;-78
2023/01/15 00:30:12;;;;;;;;;;;;;;;15.90;73.10;101643.53;7406672;19;1895;-78
2023/01/15 00:32:41;;;;;;;;;;;;;;;15.88;73.01;101647.28;7405653;19;1588;-78
2023/01/15 00:35:13;;;;;;;;;;;;;;;15.88;72.85;101647.28;7405409;19;1839;-78
2023/01/15 00:37:41;;;;;;;;;;;;;;;15.86;72.93;101636.69;7407609;19;1024;-78
2023/01/15 00:40:10;;;;;;;;;;;;;;;15.88;73.04;101641.94;7407287;19;1829;-79
2023/01/15 00:42:39;;;;;;;;;;;;;;;15.89;72.69;101641.81;7407530;19;1836;-78
2023/01/15 00:45:08;;;;;;;;;;;;;;;15.88;72.85;101637.44;7407485;19;1824;-78
2023/01/15 00:47:36;;;;;;;;;;;;;;;15.85;72.91;101629.63;7408088;19;1652;-78
2023/01/15 00:50:05;;;;;;;;;;;;;;;15.90;72.97;101648.03;7407064;19;1055;-78
2023/01/15 00:52:36;;;;;;;;;;;;;;;15.87;72.94;101638.38;7408374;19;1035;-78
2023/01/15 00:55:04;;;;;;;;;;;;;;;15.88;72.89;101639.25;7405389;19;1841;-78
2023/01/15 00:57:32;;;;;;;;;;;;;;;15.84;72.98;101633.25;7406820;19;1670;-79
2023/01/15 01:00:01;;;;;;;;;;;;;;;15.80;73.11;101636.22;7406578;19;1802;-78
2023/01/15 01:02:29;;;;;;;;;;;;;;;15.81;73.22;101641.44;7404010;19;1560;-78
2023/01/15 01:04:57;;;;;;;;;;;;;;;15.77;73.31;101623.91;7401537;19;1078;-78
2023/01/15 01:07:25;;;;;;;;;;;;;;;15.80;73.20;101628.22;7400972;19;1583;-78
2023/01/15 01:09:56;;;;;;;;;;;;;;;15.79;73.09;101631.81;7404960;19;1699;-78
2023/01/15 01:12:25;;;;;;;;;;;;;;;15.77;73.00;101621.22;7402530;19;1526;-78
2023/01/15 01:14:53;;;;;;;;;;;;;;;15.75;72.94;101612.47;7401379;19;1855;-78
2023/01/15 01:17:21;;;;;;;;;;;;;;;15.74;73.02;101605.44;7402629;19;1670;-78
2023/01/15 01:19:49;;;;;;;;;;;;;;;15.75;72.94;101611.63;7403287;19;1116;-79
2023/01/15 01:22:18;;;;;;;;;;;;;;;15.78;73.05;101612.28;7402718;19;1603;-79
2023/01/15 01:24:46;;;;;;;;;;;;;;;15.78;73.07;101606.97;7401982;19;1800;-78
2023/01/15 01:27:18;;;;;;;;;;;;;;;15.78;73.07;101614.97;7402898;19;1564;-79
2023/01/15 01:29:46;;;;;;;;;;;;;;;15.77;72.83;101601.72;7402762;19;1595;-78
2023/01/15 01:32:15;;;;;;;;;;;;;;;15.74;73.06;101610.78;7402451;19;1654;-79
2023/01/15 01:34:43;;;;;;;;;;;;;;;15.73;73.25;101605.53;7401883;19;1862;-78
2023/01/15 01:37:11;;;;;;;;;;;;;;;15.71;73.28;101610.91;7403854;19;1389;-78
2023/01/15 01:39:39;;;;;;;;;;;;;;;15.74;73.01;101600.09;7405909;19;1596;-78
2023/01/15 01:42:12;;;;;;;;;;;;;;;15.75;72.90;101604.47;7404933;19;1666;-78
2023/01/15 01:44:55;;;;;;;;;;;;;;;15.76;72.74;101603.53;7404485;19;1572;-78
2023/01/15 01:47:28;;;;;;;;;;;;;;;15.74;72.91;101578.78;7403622;19;1591;-78
2023/01/15 01:50:00;;;;;;;;;;;;;;;15.75;73.09;101599.13;7405802;19;1017;-78
2023/01/15 01:52:33;;;;;;;;;;;;;;;15.81;72.56;101590.75;7404454;19;1682;-78
2023/01/15 01:55:01;;;;;;;;;;;;;;;15.73;73.06;101592.19;7404531;19;1867;-78
2023/01/15 01:57:30;;;;;;;;;;;;;;;15.70;72.88;101574.53;7402828;19;1569;-78
2023/01/15 01:59:59;;;;;;;;;;;;;;;15.70;72.94;101593.22;7405160;19;1586;-78
2023/01/15 02:02:30;;;;;;;;;;;;;;;15.70;73.19;101569.22;7402978;19;1494;-78
2023/01/15 02:04:58;;;;;;;;;;;;;;;15.70;72.95;101588.72;7404415;19;1163;-78
2023/01/15 02:07:27;;;;;;;;;;;;;;;15.66;73.02;101586.34;7404066;19;1666;-78
2023/01/15 02:09:55;;;;;;;;;;;;;;;15.63;73.35;101587.38;7404030;19;1722;-78
2023/01/15 02:12:26;;;;;;;;;;;;;;;15.66;73.02;101586.34;7403113;19;1789;-78
2023/01/15 02:14:59;;;;;;;;;;;;;;;15.65;72.95;101580.13;7403556;19;1823;-78
2023/01/15 02:17:34;;;;;;;;;;;;;;;15.65;73.08;101573.97;7403406;19;1584;-78
2023/01/15 02:20:12;;;;;;;;;;;;;;;15.76;72.68;101582.19;7404221;19;1029;-78
2023/01/15 02:22:46;;;;;;;;;;;;;;;16.60;70.09;101572.47;7403624;19;1080;-78
2023/01/15 02:25:16;;;;;;;;;;;;;;;17.14;68.10;101583.16;7404340;19;1095;-78
2023/01/15 02:27:49;;;;;;;;;;;;;;;17.71;66.31;101576.59;7401662;19;1706;-78
2023/01/15 02:30:21;;;;;;;;;;;;;;;18.07;65.46;101578.50;7401418;19;1592;-78
2023/01/15 02:32:52;;;;;;;;;;;;;;;18.27;64.83;101560.16;7402355;19;1414;-78
2023/01/15 02:35:21;;;;;;;;;;;;;;;18.38;64.50;101557.56;7402116;19;1853;-78
2023/01/15 02:37:51;;;;;;;;;;;;;;;18.56;63.92;101570.56;7403147;19;1493;-78
2023/01/15 02:40:21;;;;;;;;;;;;;;;18.51;64.11;101568.22;7404803;19;1056;-78
2023/01/15 02:42:52;;;;;;;;;;;;;;;18.45;64.10;101555.28;7403347;19;1753;-78
2023/01/15 02:45:25;;;;;;;;;;;;;;;18.35;64.64;101556.94;7403454;19;1742;-78
2023/01/15 02:47:55;;;;;;;;;;;;;;;18.11;65.21;101556.88;7403292;19;1655;-78
2023/01/15 02:50:27;;;;;;;;;;;;;;;17.47;67.09;101568.47;7399146;19;1788;-78
2023/01/15 02:52:59;;;;;;;;;;;;;;;17.53;66.95;101567.16;7403439;19;1619;-78
2023/01/15 02:55:30;;;;;;;;;;;;;;;18.50;64.57;101561.13;7402234;19;1852;-78
2023/01/15 02:58:04;;;;;;;;;;;;;;;19.30;62.16;101571.28;7402588;19;1367;-78
2023/01/15 03:00:34;;;;;;;;;;;;;;;19.39;61.98;101557.16;7402024;19;1724;-78
2023/01/15 03:03:04;;;;;;;;;;;;;;;19.66;61.06;101566.72;7401461;19;1754;-78
2023/01/15 03:05:35;;;;;;;;;;;;;;;19.75;61.09;101557.09;7399738;19;1602;-78
2023/01/15 03:08:04;;;;;;;;;;;;;;;19.90;60.56;101565.78;7402448;19;1612;-78
2023/01/15 03:10:39;;;;;;;;;;;;;;;19.41;61.94;101552.50;7402584;19;1693;-78
2023/01/15 03:13:13;;;;;;;;;;;;;;;19.49;61.72;101551.91;7401666;19;1584;-78
2023/01/15 03:18:26;;;;;;;;;;;;;;;19.48;61.89;101561.81;7404321;19;802;-78
2023/01/15 03:20:58;;;;;;;;;;;;;;;19.48;61.65;101564.50;7398899;19;1721;-78
2023/01/15 03:23:28;;;;;;;;;;;;;;;19.64;61.41;101552.56;7400405;19;1611;-78
2023/01/15 03:25:57;;;;;;;;;;;;;;;19.58;61.64;101563.78;7403111;19;1075;-78
2023/01/15 03:28:30;;;;;;;;;;;;;;;19.62;61.47;101551.84;7401602;19;1805;-78
2023/01/15 03:31:00;;;;;;;;;;;;;;;19.61;61.61;101556.31;7400395;19;1666;-78
2023/01/15 03:33:28;;;;;;;;;;;;;;;19.55;61.87;101550.59;7400032;19;1674;-78
2023/01/15 03:35:57;;;;;;;;;;;;;;;19.63;61.62;101548.16;7399117;19;1850;-79
2023/01/15 03:38:28;;;;;;;;;;;;;;;19.65;61.37;101551.56;7402666;19;1494;-78
2023/01/15 03:41:01;;;;;;;;;;;;;;;19.65;61.17;101530.09;7404031;19;1413;-78
2023/01/15 03:43:45;;;;;;;;;;;;;;;19.68;61.67;101567.44;7409572;19;1591;-78
2023/01/15 03:46:18;;;;;;;;;;;;;;;19.69;61.34;101558.41;7409229;19;1505;-79
2023/01/15 03:48:51;;;;;;;;;;;;;;;19.80;61.23;101561.13;7409389;19;989;-79
2023/01/15 03:51:21;;;;;;;;;;;;;;;19.75;61.42;101547.22;7405932;19;1588;-79
2023/01/15 03:53:51;;;;;;;;;;;;;;;19.85;61.09;101540.13;7407511;19;1610;-78
2023/01/15 03:56:23;;;;;;;;;;;;;;;19.88;60.86;101562.38;7404210;19;1815;-78
2023/01/15 03:58:57;;;;;;;;;;;;;;;19.92;60.79;101555.78;7408376;19;1502;-78
2023/01/15 04:01:28;;;;;;;;;;;;;;;19.73;61.19;101549.16;7407847;19;1450;-78
2023/01/15 04:03:58;;;;;;;;;;;;;;;19.65;61.39;101546.22;7409457;19;1025;-78
2023/01/15 04:06:27;;;;;;;;;;;;;;;19.65;61.77;101555.09;7406204;19;1576;-78
2023/01/15 04:08:55;;;;;;;;;;;;;;;19.66;61.67;101558.66;7407559;19;1611;-78
2023/01/15 04:11:24;;;;;;;;;;;;;;;19.70;61.63;101560.13;7406880;19;1399;-78
2023/01/15 04:13:56;;;;;;;;;;;;;;;19.72;61.52;101568.94;7408805;19;1411;-78
2023/01/15 04:16:27;;;;;;;;;;;;;;;19.71;61.58;101569.91;7406035;19;1833;-78
2023/01/15 04:18:55;;;;;;;;;;;;;;;19.70;61.33;101554.75;7405900;19;1441;-78
2023/01/15 04:21:24;;;;;;;;;;;;;;;19.85;61.45;101571.50;7405210;19;1749;-78
2023/01/15 04:23:52;;;;;;;;;;;;;;;19.88;61.06;101557.84;7406929;19;1426;-78
2023/01/15 04:26:20;;;;;;;;;;;;;;;19.81;61.10;101556.63;7404973;19;1485;-78
2023/01/15 04:28:49;;;;;;;;;;;;;;;19.89;61.06;101554.16;7405808;19;1533;-78
2023/01/15 04:31:20;;;;;;;;;;;;;;;19.90;60.98;101545.16;7407079;19;1797;-78
2023/01/15 04:33:48;;;;;;;;;;;;;;;19.92;61.07;101575.41;7408263;19;1529;-79
2023/01/15 04:36:16;;;;;;;;;;;;;;;19.85;61.01;101558.94;7405184;19;1856;-78
2023/01/15 04:38:44;;;;;;;;;;;;;;;19.86;61.29;101539.19;7405554;19;1571;-78
2023/01/15 04:44:08;;;;;;;;;;;;;;;19.78;61.27;101560.41;7407587;19;1351;-78
2023/01/15 04:46:40;;;;;;;;;;;;;;;19.90;61.08;101555.06;7403014;19;1627;-78
2023/01/15 04:49:10;;;;;;;;;;;;;;;19.90;61.10;101538.94;7407997;19;1017;-78
2023/01/15 04:51:39;;;;;;;;;;;;;;;19.91;60.81;101548.69;7404672;19;1569;-78
2023/01/15 04:54:07;;;;;;;;;;;;;;;19.93;61.15;101560.16;7405373;19;1429;-79
2023/01/15 04:56:39;;;;;;;;;;;;;;;19.93;61.13;101552.09;7403017;19;1847;-78
2023/01/15 04:59:07;;;;;;;;;;;;;;;19.89;61.09;101553.31;7405818;19;1619;-78
2023/01/15 05:01:36;;;;;;;;;;;;;;;19.87;61.21;101556.13;7406633;19;1497;-78
2023/01/15 05:04:07;;;;;;;;;;;;;;;19.95;60.77;101547.47;7406126;19;1267;-78
2023/01/15 05:06:35;;;;;;;;;;;;;;;19.94;61.00;101560.03;7404650;19;1375;-78
2023/01/15 05:09:03;;;;;;;;;;;;;;;19.88;61.04;101554.31;7405183;19;1622;-78
2023/01/15 05:11:32;;;;;;;;;;;;;;;19.88;61.35;101567.75;7402539;19;1512;-78
2023/01/15 05:14:00;;;;;;;;;;;;;;;19.89;60.96;101561.38;7404546;19;1667;-78
2023/01/15 05:16:29;;;;;;;;;;;;;;;19.90;61.07;101549.69;7404864;19;1871;-78
2023/01/15 05:18:59;;;;;;;;;;;;;;;19.99;60.77;101565.03;7407296;19;1275;-78
2023/01/15 05:21:31;;;;;;;;;;;;;;;19.85;61.15;101553.56;7405418;19;1528;-78
2023/01/15 05:24:00;;;;;;;;;;;;;;;19.94;60.99;101561.88;7404526;19;1286;-78
2023/01/15 05:26:29;;;;;;;;;;;;;;;19.95;60.85;101555.53;7405617;19;1095;-78
2023/01/15 05:28:58;;;;;;;;;;;;;;;19.71;61.88;101564.53;7405789;19;1749;-78
2023/01/15 05:31:26;;;;;;;;;;;;;;;18.96;63.56;101560.44;7405151;19;1745;-78
2023/01/15 05:33:56;;;;;;;;;;;;;;;18.58;65.00;101576.66;7404225;19;1483;-78
2023/01/15 05:36:25;;;;;;;;;;;;;;;18.80;64.20;101586.66;7400541;19;1853;-79
2023/01/15 05:38:58;;;;;;;;;;;;;;;19.19;63.01;101587.31;7403324;19;1594;-78
2023/01/15 05:44:09;;;;;;;;;;;;;;;19.58;61.77;101579.88;7404355;19;1462;-78
2023/01/15 05:46:38;;;;;;;;;;;;;;;19.42;62.56;101585.56;7404048;19;1357;-78
2023/01/15 05:49:07;;;;;;;;;;;;;;;19.36;62.44;101594.06;7404495;19;1431;-78
2023/01/15 05:51:35;;;;;;;;;;;;;;;19.23;62.61;101578.91;7401777;19;1429;-78
2023/01/15 05:54:07;;;;;;;;;;;;;;;19.23;62.67;101562.00;7404597;19;1420;-78
2023/01/15 05:56:36;;;;;;;;;;;;;;;19.17;62.81;101587.44;7402845;19;1856;-78
2023/01/15 05:59:05;;;;;;;;;;;;;;;19.26;62.57;101572.50;7403252;19;1332;-78
2023/01/15 06:01:33;;;;;;;;;;;;;;;19.21;62.55;101574.66;7403349;19;1477;-78
2023/01/15 06:04:02;;;;;;;;;;;;;;;19.35;62.51;101570.91;7402671;19;1538;-78
2023/01/15 06:06:30;;;;;;;;;;;;;;;19.52;61.78;101583.88;7403574;19;1417;-78
2023/01/15 06:08:58;;;;;;;;;;;;;;;19.50;61.85;101576.91;7405630;19;1511;-78
2023/01/15 06:11:29;;;;;;;;;;;;;;;19.36;62.20;101578.84;7403892;19;1503;-78
2023/01/15 06:13:57;;;;;;;;;;;;;;;19.24;62.68;101571.75;7403081;19;1396;-78
2023/01/15 06:16:26;;;;;;;;;;;;;;;19.22;62.65;101571.03;7400272;19;1863;-78
2023/01/15 06:18:54;;;;;;;;;;;;;;;19.24;62.37;101564.56;7403659;19;1337;-78
2023/01/15 06:21:22;;;;;;;;;;;;;;;19.22;62.74;101568.34;7400352;19;1590;-78
2023/01/15 06:23:55;;;;;;;;;;;;;;;19.32;61.87;101571.13;7401857;19;1443;-78
2023/01/15 06:26:23;;;;;;;;;;;;;;;19.22;62.32;101571.03;7403016;19;1556;-78
2023/01/15 06:28:55;;;;;;;;;;;;;;;19.41;61.88;101570.44;7404143;19;1646;-78
2023/01/15 06:31:25;;;;;;;;;;;;;;;19.56;61.36;101566.56;7404084;19;1568;-78
2023/01/15 06:33:53;;;;;;;;;;;;;;;19.51;61.55;101563.38;7403510;19;1461;-78
2023/01/15 06:36:23;;;;;;;;;;;;;;;19.37;62.33;101575.19;7401217;19;1855;-78
2023/01/15 06:38:51;;;;;;;;;;;;;;;19.39;62.59;101578.59;6363321;19;10001202;-78
2023/01/15 06:49:25;;;;;;;;;;;;;;;19.56;61.83;101584.50;7388270;19;1439;-78
2023/01/15 06:51:54;;;;;;;;;;;;;;;19.64;61.45;101595.50;7387287;19;1454;-77
2023/01/15 06:54:22;;;;;;;;;;;;;;;19.61;61.23;101595.72;7382675;19;1613;-77
2023/01/15 06:56:50;;;;;;;;;;;;;;;19.57;61.43;101583.53;7388665;19;1887;-77
2023/01/15 06:59:21;;;;;;;;;;;;;;;19.67;60.86;101588.03;7387460;19;1423;-77
2023/01/15 07:01:50;;;;;;;;;;;;;;;19.63;60.87;101593.78;7387277;19;1538;-77
2023/01/15 07:04:18;;;;;;;;;;;;;;;19.59;60.80;101584.25;7389813;19;1325;-77
2023/01/15 07:06:46;;;;;;;;;;;;;;;19.58;60.86;101587.94;7394235;19;1462;-77
2023/01/15 07:09:15;;;;;;;;;;;;;;;19.59;60.58;101589.63;7389525;19;1427;-77
2023/01/15 07:11:50;;;;;;;;;;;;;;;19.10;59.50;101606.78;7390906;19;1334;-77
2023/01/15 07:14:22;;;;;;;;;;;;;;;19.27;57.85;101601.84;7389893;19;1488;-77
2023/01/15 07:16:51;;;;;;;;;;;;;;;19.25;58.41;101602.94;7397477;19;1875;-77
2023/01/15 07:19:20;;;;;;;;;;;;;;;19.62;57.63;101594.75;7404727;19;1487;-77
2023/01/15 07:21:49;;;;;;;;;;;;;;;19.89;57.52;101601.66;7400152;19;1433;-77
2023/01/15 07:24:17;;;;;;;;;;;;;;;19.94;57.32;101600.31;7400571;19;1411;-77
2023/01/15 07:26:46;;;;;;;;;;;;;;;19.76;58.14;101597.25;7399468;19;1472;-77
2023/01/15 07:29:15;;;;;;;;;;;;;;;19.74;58.14;101583.09;7278577;19;13177;-77
2023/01/15 07:31:46;;;;;;;;;;;;;;;19.69;58.36;101601.34;7396813;19;2024;-77
2023/01/15 07:34:14;;;;;;;;;;;;;;;19.62;58.65;101594.75;7399018;19;1481;-77
2023/01/15 07:36:42;;;;;;;;;;;;;;;19.59;58.65;101579.72;7396760;19;1860;-77
2023/01/15 07:39:12;;;;;;;;;;;;;;;19.58;59.18;101598.66;7397617;19;2558;-77
2023/01/15 07:49:54;;;;;;;;;;;;;;;19.45;60.56;101593.38;7397499;19;1310;-77
2023/01/15 07:52:23;;;;;;;;;;;;;;;19.43;60.59;101590.81;7402564;19;1714;-77
2023/01/15 07:54:51;;;;;;;;;;;;;;;19.42;60.98;101585.56;7404081;19;1795;-77
2023/01/15 07:57:21;;;;;;;;;;;;;;;19.42;60.83;101589.09;7403379;19;1913;-77
2023/01/15 07:59:50;;;;;;;;;;;;;;;19.34;61.17;101596.88;7405795;19;1599;-77
2023/01/15 08:02:21;;;;;;;;;;;;;;;19.35;61.36;101587.00;7402007;19;1448;-77
2023/01/15 08:04:49;;;;;;;;;;;;;;;19.42;60.95;101583.75;7405323;19;1358;-77
2023/01/15 08:07:17;;;;;;;;;;;;;;;19.37;61.40;101579.69;7403455;19;1715;-77
2023/01/15 08:09:45;;;;;;;;;;;;;;;19.36;61.49;101567.25;7403677;19;1520;-77
2023/01/15 08:17:38;;;;;;;;;;;;;;;19.38;61.88;101571.53;7403826;19;1863;-77
2023/01/15 08:20:09;;;;;;;;;;;;;;;19.44;61.49;101570.22;7405404;19;1512;-77
2023/01/15 08:22:38;;;;;;;;;;;;;;;19.44;62.31;101581.78;7405152;19;1357;-77
2023/01/15 08:25:07;;;;;;;;;;;;;;;18.85;64.33;101579.16;7402514;19;1513;-77
2023/01/15 08:27:36;;;;;;;;;;;;;;;18.40;65.66;101594.94;7401187;19;1445;-77
2023/01/15 08:30:04;;;;;;;;;;;;;;;17.95;65.12;101594.59;7405627;19;1673;-77
2023/01/15 08:32:32;;;;;;;;;;;;;;;17.78;66.47;101599.25;7410738;19;1403;-78
2023/01/15 08:35:03;;;;;;;;;;;;;;;17.71;66.28;101598.00;7403389;19;1095;-78
2023/01/15 08:37:31;;;;;;;;;;;;;;;17.63;66.60;101589.66;7403008;19;1864;-78
2023/01/15 08:40:00;;;;;;;;;;;;;;;17.68;66.88;101593.69;7406066;19;1800;-78
2023/01/15 08:42:28;;;;;;;;;;;;;;;17.67;66.97;101591.16;7402255;19;1784;-78
2023/01/15 08:44:56;;;;;;;;;;;;;;;17.54;67.41;101571.56;7405895;19;1505;-78
2023/01/15 08:47:25;;;;;;;;;;;;;;;17.46;67.37;101580.94;7404974;19;1607;-78
2023/01/15 08:49:53;;;;;;;;;;;;;;;17.42;67.53;101578.59;7410857;19;1263;-78
2023/01/15 08:52:24;;;;;;;;;;;;;;;17.33;67.82;101571.19;7406963;19;1705;-78
2023/01/15 08:54:53;;;;;;;;;;;;;;;17.30;67.70;101577.63;7403202;19;1429;-78
2023/01/15 08:57:21;;;;;;;;;;;;;;;17.22;67.70;101571.94;7401150;19;1860;-78
2023/01/15 08:59:49;;;;;;;;;;;;;;;17.20;67.60;101564.03;7405182;19;1394;-78
2023/01/15 09:02:18;;;;;;;;;;;;;;;17.20;67.83;101573.88;7399956;19;1525;-78
2023/01/15 09:04:46;;;;;;;;;;;;;;;17.14;67.69;101572.47;7401371;19;1479;-78
2023/01/15 09:07:15;;;;;;;;;;;;;;;17.11;67.78;101578.03;7404381;19;1513;-78
2023/01/15 09:09:46;;;;;;;;;;;;;;;17.07;67.98;101560.50;7404311;19;1545;-78
2023/01/15 09:12:14;;;;;;;;;;;;;;;17.01;68.12;101559.09;7404793;19;1599;-77
2023/01/15 09:14:42;;;;;;;;;;;;;;;16.95;67.87;101546.13;7405130;19;1683;-78
2023/01/15 09:17:11;;;;;;;;;;;;;;;17.00;67.38;101552.00;7401420;19;1825;-77
2023/01/15 09:19:39;;;;;;;;;;;;;;;16.94;67.37;101538.22;7403339;19;1290;-78
2023/01/15 09:22:07;;;;;;;;;;;;;;;17.02;66.56;101547.41;7398797;19;1509;-78
2023/01/15 09:24:35;;;;;;;;;;;;;;;17.33;66.14;101534.66;7403129;19;1584;-78
2023/01/15 09:27:06;;;;;;;;;;;;;;;18.46;62.92;101531.06;7399456;19;1469;-78
2023/01/15 09:29:34;;;;;;;;;;;;;;;18.99;61.31;101511.94;7403149;19;1606;-78
2023/01/15 09:32:03;;;;;;;;;;;;;;;19.67;59.56;101512.91;7399644;19;1607;-78
2023/01/15 09:34:31;;;;;;;;;;;;;;;19.39;60.40;101502.66;7403323;19;1154;-78
2023/01/15 09:36:59;;;;;;;;;;;;;;;18.62;62.35;101512.03;7401071;19;1848;-78
2023/01/15 09:39:28;;;;;;;;;;;;;;;18.96;61.54;101501.47;7400702;19;1559;-78
2023/01/15 09:42:08;;;;;;;;;;;;;;;19.10;61.30;101507.59;7401830;19;1488;-78
2023/01/15 09:44:46;;;;;;;;;;;;;;;19.45;59.64;101500.34;7403444;19;1424;-77
2023/01/15 09:47:17;;;;;;;;;;;;;;;19.75;59.01;101503.44;7400308;19;1651;-78
2023/01/15 09:49:52;;;;;;;;;;;;;;;19.64;59.75;101475.59;7402983;19;1218;-77
2023/01/15 09:52:27;;;;;;;;;;;;;;;19.73;59.76;101498.19;7401216;19;1524;-78
2023/01/15 09:54:59;;;;;;;;;;;;;;;19.63;60.12;101489.97;7402676;19;1518;-78
2023/01/15 09:57:29;;;;;;;;;;;;;;;19.60;60.48;101486.72;7401960;19;1824;-78
2023/01/15 10:00:02;;;;;;;;;;;;;;;19.59;60.30;101482.31;7403817;19;1533;-78
2023/01/15 10:02:32;;;;;;;;;;;;;;;19.60;60.17;101484.03;7401706;19;1706;-77
2023/01/15 10:05:04;;;;;;;;;;;;;;;19.55;60.29;101476.31;7402691;19;1270;-77
2023/01/15 10:07:36;;;;;;;;;;;;;;;19.67;60.11;101474.50;7402567;19;1834;-78
2023/01/15 10:10:05;;;;;;;;;;;;;;;19.71;60.43;101467.94;7401276;19;1816;-77
2023/01/15 10:12:38;;;;;;;;;;;;;;;19.76;60.19;101457.69;7400675;19;1525;-78
2023/01/15 10:15:16;;;;;;;;;;;;;;;19.84;60.37;101459.75;7400424;19;1701;-78
2023/01/15 10:17:45;;;;;;;;;;;;;;;19.83;60.61;101458.03;7399546;19;1851;-78
2023/01/15 10:20:15;;;;;;;;;;;;;;;19.47;62.30;101436.69;7400133;19;1509;-77
2023/01/15 10:22:53;;;;;;;;;;;;;;;19.16;63.02;101435.59;7403098;19;1314;-77
2023/01/15 10:25:26;;;;;;;;;;;;;;;18.97;64.01;101448.72;7402517;19;1000;-78
2023/01/15 10:27:54;;;;;;;;;;;;;;;18.84;64.74;101432.72;7402439;19;1701;-78
2023/01/15 10:30:32;;;;;;;;;;;;;;;18.76;65.13;101427.06;7401450;19;1399;-78
2023/01/15 10:33:05;;;;;;;;;;;;;;;18.72;65.56;101439.00;7398422;19;1231;-77
2023/01/15 10:35:40;;;;;;;;;;;;;;;18.66;65.75;101430.47;7400406;19;1394;-78
2023/01/15 10:38:14;;;;;;;;;;;;;;;18.63;66.87;101419.97;7398012;19;1831;-78
2023/01/15 10:40:48;;;;;;;;;;;;;;;18.64;67.16;101415.47;7400347;19;1480;-78
2023/01/15 10:43:21;;;;;;;;;;;;;;;18.55;67.55;101417.03;7400472;19;1322;-78
2023/01/15 10:45:55;;;;;;;;;;;;;;;18.54;67.96;101404.59;7400534;19;1380;-77
2023/01/15 10:48:27;;;;;;;;;;;;;;;18.53;67.59;101396.69;7399245;19;1529;-77
2023/01/15 10:50:56;;;;;;;;;;;;;;;18.54;67.25;101398.38;7403454;19;1346;-78
2023/01/15 10:53:31;;;;;;;;;;;;;;;18.85;66.69;101395.09;7408412;19;1751;-77
2023/01/15 10:56:02;;;;;;;;;;;;;;;19.42;65.13;101393.31;7408766;19;1468;-77
2023/01/15 10:58:35;;;;;;;;;;;;;;;19.65;63.97;101377.16;7405843;19;1862;-77
2023/01/15 11:01:07;;;;;;;;;;;;;;;19.35;65.22;101383.19;7408632;19;1330;-78
2023/01/15 11:03:38;;;;;;;;;;;;;;;18.99;65.83;101382.44;7406131;19;1488;-78
2023/01/15 11:06:08;;;;;;;;;;;;;;;18.87;66.23;101378.91;7405866;19;1358;-78
2023/01/15 11:08:37;;;;;;;;;;;;;;;18.69;66.82;101399.91;7409049;19;1591;-77
2023/01/15 11:11:15;;;;;;;;;;;;;;;18.54;66.99;101385.84;7408341;19;1366;-78
2023/01/15 11:19:39;;;;;;;;;;;;;;;18.45;66.92;101359.78;7407993;19;1080;-77
2023/01/15 11:22:09;;;;;;;;;;;;;;;18.42;66.53;101354.66;7402941;19;1577;-77
2023/01/15 11:24:39;;;;;;;;;;;;;;;18.36;66.35;101358.66;7403074;19;1429;-77
2023/01/15 11:27:08;;;;;;;;;;;;;;;18.29;66.49;101352.06;7407193;19;1409;-77
2023/01/15 11:29:38;;;;;;;;;;;;;;;18.27;66.79;101359.38;7404805;19;1591;-77
2023/01/15 11:32:20;;;;;;;;;;;;;;;18.15;66.90;101350.44;7407568;19;1670;-77
2023/01/15 11:34:54;;;;;;;;;;;;;;;18.00;67.10;101330.16;7405868;19;1387;-77
2023/01/15 11:37:22;;;;;;;;;;;;;;;17.89;67.56;101345.22;7406776;19;1858;-77
2023/01/15 11:39:54;;;;;;;;;;;;;;;17.81;67.72;101342.22;7407173;19;1832;-77
2023/01/15 11:50:47;;;;;;;;;;;;;;;17.65;68.43;101325.59;7408491;19;1409;-77
2023/01/15 11:53:18;;;;;;;;;;;;;;;17.55;68.41;101325.44;7406836;19;1270;-77
2023/01/15 11:55:59;;;;;;;;;;;;;;;17.48;69.08;101325.00;7408036;19;1532;-77
2023/01/15 11:58:28;;;;;;;;;;;;;;;17.45;68.71;101335.94;7405758;19;1850;-76
2023/01/15 12:00:57;;;;;;;;;;;;;;;17.39;68.11;101311.44;7403907;19;1510;-76
2023/01/15 12:03:29;;;;;;;;;;;;;;;17.37;68.34;101311.59;7405071;19;1446;-76
2023/01/15 12:05:59;;;;;;;;;;;;;;;17.33;68.25;101307.44;7403409;19;1620;-76
2023/01/15 12:08:34;;;;;;;;;;;;;;;17.29;68.38;101304.13;7407959;19;1413;-76
2023/01/15 12:11:13;;;;;;;;;;;;;;;17.23;68.59;101293.00;7406870;19;1434;-76
2023/01/15 12:13:46;;;;;;;;;;;;;;;17.19;68.39;101297.72;7407590;19;1693;-76
2023/01/15 12:16:18;;;;;;;;;;;;;;;17.17;68.69;101291.63;7404934;19;1690;-76
2023/01/15 12:18:58;;;;;;;;;;;;;;;17.14;68.75;101283.84;7404628;19;1855;-76
2023/01/15 12:21:50;;;;;;;;;;;;;;;17.13;68.89;101305.31;7405138;19;1766;-76
2023/01/15 12:24:27;;;;;;;;;;;;;;;17.10;68.84;101299.22;7404654;19;1745;-76
2023/01/15 12:27:04;;;;;;;;;;;;;;;17.10;68.60;101291.22;7406853;19;1579;-77
2023/01/15 12:29:38;;;;;;;;;;;;;;;17.08;68.94;101274.44;7407059;19;1406;-76
2023/01/15 12:32:10;;;;;;;;;;;;;;;17.14;68.78;101282.97;7406020;19;1398;-77
2023/01/15 12:34:46;;;;;;;;;;;;;;;17.19;68.55;101270.13;7407811;19;1107;-76
2023/01/15 12:37:19;;;;;;;;;;;;;;;17.18;68.63;101263.94;7405667;19;1867;-76
2023/01/15 12:39:49;;;;;;;;;;;;;;;17.26;68.03;101282.09;7406669;19;2087;-76
2023/01/15 12:45:03;;;;;;;;;;;;;;;17.21;68.33;101257.50;7400784;19;1658;-76
2023/01/15 12:47:33;;;;;;;;;;;;;;;17.21;68.46;101254.84;7406326;19;1849;-77
2023/01/15 12:50:06;;;;;;;;;;;;;;;17.20;68.35;101256.66;7407087;19;951;-76
2023/01/15 12:52:38;;;;;;;;;;;;;;;17.21;68.16;101247.69;7406756;19;1122;-76
2023/01/15 12:55:11;;;;;;;;;;;;;;;17.19;68.55;101254.97;7405908;19;1702;-76
2023/01/15 12:57:41;;;;;;;;;;;;;;;17.17;68.23;101246.22;7404052;19;1844;-77
2023/01/15 13:00:15;;;;;;;;;;;;;;;17.04;68.18;101240.88;7404668;19;1733;-76
2023/01/15 13:02:52;;;;;;;;;;;;;;;17.10;67.25;101245.78;7400778;19;1572;-76
2023/01/15 13:05:27;;;;;;;;;;;;;;;17.21;67.25;101230.78;7402774;19;1416;-77
2023/01/15 13:07:59;;;;;;;;;;;;;;;17.26;67.44;101247.34;7403033;19;1496;-77
2023/01/15 13:10:56;;;;;;;;;;;;;;;17.21;67.54;101236.13;6904129;19;10000305;-81
2023/01/15 13:13:33;;;;;;;;;;;;;;;17.20;67.55;101239.78;7423110;19;1432;-79
2023/01/15 13:16:06;;;;;;;;;;;;;;;17.20;68.02;101229.09;7392507;19;1487;-78
2023/01/15 13:18:39;;;;;;;;;;;;;;;17.19;68.06;101235.38;7396908;19;1837;-78
2023/01/15 13:21:12;;;;;;;;;;;;;;;17.17;67.90;101229.28;7398315;19;1457;-78
2023/01/15 13:23:47;;;;;;;;;;;;;;;17.16;68.12;101240.97;7398245;19;1496;-78
2023/01/15 13:26:22;;;;;;;;;;;;;;;17.10;68.34;101224.41;7398623;19;1395;-78
2023/01/15 13:29:01;;;;;;;;;;;;;;;17.07;68.37;101234.50;7396797;19;1406;-78
2023/01/15 13:31:50;;;;;;;;;;;;;;;17.03;68.54;101225.84;7399357;19;1493;-78
2023/01/15 13:34:24;;;;;;;;;;;;;;;16.99;68.80;101213.66;7393681;19;1494;-78
2023/01/15 13:36:57;;;;;;;;;;;;;;;16.99;68.43;101216.34;7398756;19;1582;-78
2023/01/15 13:39:30;;;;;;;;;;;;;;;16.96;68.92;101224.56;7395733;19;1843;-78
2023/01/15 13:44:46;;;;;;;;;;;;;;;16.89;68.88;101205.47;7397021;19;1749;-78
2023/01/15 13:47:19;;;;;;;;;;;;;;;16.86;69.10;101212.84;7396870;19;1647;-78
2023/01/15 13:49:49;;;;;;;;;;;;;;;16.82;69.03;101235.38;7397964;19;1410;-78
2023/01/15 13:52:29;;;;;;;;;;;;;;;16.79;68.79;101230.22;7396329;19;1592;-78
2023/01/15 13:55:00;;;;;;;;;;;;;;;16.76;69.09;101199.25;7395074;19;1686;-78
2023/01/15 13:57:35;;;;;;;;;;;;;;;16.74;69.22;101213.69;7395433;19;1822;-78